sensor_id;sensor_type;location;lat;lon;timestamp;pressure;altitude;pressure_sealevel;temperature;humidity
60089;BME280;45961;53.574;55.878;2023-05-02T00:00:33;100205.34;;;13.43;48.94
60089;BME280;45961;53.574;55.878;2023-05-02T00:01:36;100214.88;;;13.30;49.71
60089;BME280;45961;53.574;55.878;2023-05-02T00:02:37;100207.97;;;13.23;49.86
60089;BME280;45961;53.574;55.878;2023-05-02T00:03:37;100204.50;;;13.24;49.69
60089;BME280;45961;53.574;55.878;2023-05-02T00:04:38;100212.28;;;13.28;49.41
60089;BME280;45961;53.574;55.878;2023-05-02T00:05:39;100203.59;;;13.26;49.61
60089;BME280;45961;53.574;55.878;2023-05-02T00:06:40;100200.16;;;13.27;49.58
60089;BME280;45961;53.574;55.878;2023-05-02T00:07:42;100198.44;;;13.31;49.65
60089;BME280;45961;53.574;55.878;2023-05-02T00:08:42;100192.34;;;13.30;49.68
60089;BME280;45961;53.574;55.878;2023-05-02T00:09:43;100189.75;;;13.27;49.82
60089;BME280;45961;53.574;55.878;2023-05-02T00:10:44;100192.34;;;13.26;49.97
60089;BME280;45961;53.574;55.878;2023-05-02T00:11:45;100188.88;;;13.30;49.83
60089;BME280;45961;53.574;55.878;2023-05-02T00:12:46;100188.88;;;13.30;49.92
60089;BME280;45961;53.574;55.878;2023-05-02T00:13:46;100192.34;;;13.30;49.89
60089;BME280;45961;53.574;55.878;2023-05-02T00:14:48;100181.94;;;13.32;49.82
60089;BME280;45961;53.574;55.878;2023-05-02T00:15:48;100189.75;;;13.29;49.69
60089;BME280;45961;53.574;55.878;2023-05-02T00:16:49;100183.66;;;13.33;49.83
60089;BME280;45961;53.574;55.878;2023-05-02T00:17:50;100187.16;;;13.29;49.96
60089;BME280;45961;53.574;55.878;2023-05-02T00:18:51;100189.72;;;13.30;50.02
60089;BME280;45961;53.574;55.878;2023-05-02T00:19:52;100184.53;;;13.26;50.22
60089;BME280;45961;53.574;55.878;2023-05-02T00:20:54;100185.41;;;13.26;50.22
60089;BME280;45961;53.574;55.878;2023-05-02T00:21:54;100193.22;;;13.32;49.93
60089;BME280;45961;53.574;55.878;2023-05-02T00:22:55;100183.66;;;13.30;50.44
60089;BME280;45961;53.574;55.878;2023-05-02T00:23:56;100189.72;;;13.30;50.28
60089;BME280;45961;53.574;55.878;2023-05-02T00:24:57;100194.97;;;13.24;50.64
60089;BME280;45961;53.574;55.878;2023-05-02T00:25:58;100201.00;;;13.22;50.60
60089;BME280;45961;53.574;55.878;2023-05-02T00:26:59;100199.31;;;13.24;50.46
60089;BME280;45961;53.574;55.878;2023-05-02T00:28:00;100196.69;;;13.25;50.50
60089;BME280;45961;53.574;55.878;2023-05-02T00:29:00;100201.84;;;13.22;50.61
60089;BME280;45961;53.574;55.878;2023-05-02T00:30:01;100205.31;;;13.18;50.90
60089;BME280;45961;53.574;55.878;2023-05-02T00:31:03;100203.63;;;13.11;51.18
60089;BME280;45961;53.574;55.878;2023-05-02T00:32:04;100205.34;;;13.20;50.68
60089;BME280;45961;53.574;55.878;2023-05-02T00:33:05;100206.25;;;13.23;50.57
60089;BME280;45961;53.574;55.878;2023-05-02T00:34:06;100205.38;;;13.27;50.45
60089;BME280;45961;53.574;55.878;2023-05-02T00:35:07;100204.47;;;13.19;50.94
60089;BME280;45961;53.574;55.878;2023-05-02T00:36:14;100211.41;;;13.17;51.09
60089;BME280;45961;53.574;55.878;2023-05-02T00:37:15;100204.47;;;13.16;50.86
60089;BME280;45961;53.574;55.878;2023-05-02T00:38:16;100207.09;;;13.07;51.40
60089;BME280;45961;53.574;55.878;2023-05-02T00:39:17;100206.22;;;13.03;51.55
60089;BME280;45961;53.574;55.878;2023-05-02T00:40:18;100208.84;;;12.99;51.85
60089;BME280;45961;53.574;55.878;2023-05-02T00:41:20;100202.78;;;13.00;51.54
60089;BME280;45961;53.574;55.878;2023-05-02T00:42:21;100207.97;;;13.00;51.53
60089;BME280;45961;53.574;55.878;2023-05-02T00:43:22;100203.66;;;12.99;51.56
60089;BME280;45961;53.574;55.878;2023-05-02T00:44:22;100199.28;;;13.02;51.02
60089;BME280;45961;53.574;55.878;2023-05-02T00:45:23;100204.50;;;12.95;51.75
60089;BME280;45961;53.574;55.878;2023-05-02T00:46:24;100213.19;;;12.91;51.91
60089;BME280;45961;53.574;55.878;2023-05-02T00:47:25;100214.03;;;12.87;52.07
60089;BME280;45961;53.574;55.878;2023-05-02T00:48:26;100211.41;;;12.82;52.48
60089;BME280;45961;53.574;55.878;2023-05-02T00:49:27;100211.44;;;12.88;52.07
60089;BME280;45961;53.574;55.878;2023-05-02T00:50:28;100217.50;;;12.82;52.34
60089;BME280;45961;53.574;55.878;2023-05-02T00:51:33;100218.38;;;12.84;51.96
60089;BME280;45961;53.574;55.878;2023-05-02T00:52:34;100208.84;;;12.80;52.22
60089;BME280;45961;53.574;55.878;2023-05-02T00:53:35;100216.66;;;12.87;51.77
60089;BME280;45961;53.574;55.878;2023-05-02T00:54:36;100214.03;;;12.87;52.08
60089;BME280;45961;53.574;55.878;2023-05-02T00:55:38;100203.66;;;12.91;51.54
60089;BME280;45961;53.574;55.878;2023-05-02T00:56:40;100197.56;;;12.92;51.43
60089;BME280;45961;53.574;55.878;2023-05-02T00:57:40;100210.56;;;12.95;51.39
60089;BME280;45961;53.574;55.878;2023-05-02T00:58:42;100214.91;;;12.92;51.83
60089;BME280;45961;53.574;55.878;2023-05-02T00:59:43;100205.38;;;12.84;52.21
60089;BME280;45961;53.574;55.878;2023-05-02T01:01:05;100213.16;;;12.86;52.04
60089;BME280;45961;53.574;55.878;2023-05-02T01:03:49;100216.66;;;12.87;51.91
60089;BME280;45961;53.574;55.878;2023-05-02T01:07:08;100219.25;;;12.87;52.30
60089;BME280;45961;53.574;55.878;2023-05-02T01:08:17;100221.81;;;12.90;52.31
60089;BME280;45961;53.574;55.878;2023-05-02T01:10:23;100217.50;;;12.92;52.12
60089;BME280;45961;53.574;55.878;2023-05-02T01:13:37;100219.22;;;12.94;52.31
60089;BME280;45961;53.574;55.878;2023-05-02T01:14:40;100214.03;;;12.99;52.11
60089;BME280;45961;53.574;55.878;2023-05-02T01:15:41;100216.63;;;12.99;52.19
60089;BME280;45961;53.574;55.878;2023-05-02T01:16:44;100217.50;;;12.99;52.16
60089;BME280;45961;53.574;55.878;2023-05-02T01:17:46;100222.66;;;13.02;51.99
60089;BME280;45961;53.574;55.878;2023-05-02T01:18:48;100212.28;;;12.98;52.32
60089;BME280;45961;53.574;55.878;2023-05-02T01:19:51;100229.63;;;12.96;52.36
60089;BME280;45961;53.574;55.878;2023-05-02T01:20:55;100226.13;;;12.98;52.53
60089;BME280;45961;53.574;55.878;2023-05-02T01:21:58;100223.56;;;13.00;52.57
60089;BME280;45961;53.574;55.878;2023-05-02T01:23:02;100230.50;;;12.99;52.54
60089;BME280;45961;53.574;55.878;2023-05-02T01:24:11;100231.34;;;13.01;52.48
60089;BME280;45961;53.574;55.878;2023-05-02T01:27:51;100233.94;;;13.11;52.37
60089;BME280;45961;53.574;55.878;2023-05-02T01:29:00;100236.50;;;13.18;52.01
60089;BME280;45961;53.574;55.878;2023-05-02T01:30:01;100239.97;;;13.22;51.92
60089;BME280;45961;53.574;55.878;2023-05-02T01:31:03;100237.38;;;13.22;52.12
60089;BME280;45961;53.574;55.878;2023-05-02T01:32:06;100240.03;;;13.23;52.10
60089;BME280;45961;53.574;55.878;2023-05-02T01:33:09;100237.44;;;13.23;52.08
60089;BME280;45961;53.574;55.878;2023-05-02T01:34:10;100245.22;;;13.28;51.96
60089;BME280;45961;53.574;55.878;2023-05-02T01:35:13;100245.19;;;13.32;51.86
60089;BME280;45961;53.574;55.878;2023-05-02T01:36:14;100241.72;;;13.37;52.10
60089;BME280;45961;53.574;55.878;2023-05-02T01:37:17;100242.59;;;13.36;52.03
60089;BME280;45961;53.574;55.878;2023-05-02T01:38:19;100246.03;;;13.48;51.60
60089;BME280;45961;53.574;55.878;2023-05-02T01:39:23;100246.06;;;13.47;51.78
60089;BME280;45961;53.574;55.878;2023-05-02T01:40:24;100246.03;;;13.56;51.30
60089;BME280;45961;53.574;55.878;2023-05-02T01:41:26;100240.81;;;13.56;51.25
60089;BME280;45961;53.574;55.878;2023-05-02T01:42:29;100244.25;;;13.61;51.35
60089;BME280;45961;53.574;55.878;2023-05-02T01:43:31;100245.97;;;13.68;51.01
60089;BME280;45961;53.574;55.878;2023-05-02T01:44:33;100242.41;;;13.97;50.36
60089;BME280;45961;53.574;55.878;2023-05-02T01:45:36;100246.28;;;14.80;49.08
60089;BME280;45961;53.574;55.878;2023-05-02T01:46:39;100241.13;;;15.68;47.42
60089;BME280;45961;53.574;55.878;2023-05-02T01:47:42;100241.78;;;16.47;46.26
60089;BME280;45961;53.574;55.878;2023-05-02T01:48:44;100241.47;;;17.23;44.72
60089;BME280;45961;53.574;55.878;2023-05-02T01:49:46;100243.41;;;17.60;43.51
60089;BME280;45961;53.574;55.878;2023-05-02T01:50:47;100236.00;;;18.23;42.15
60089;BME280;45961;53.574;55.878;2023-05-02T01:51:48;100230.06;;;18.54;41.13
60089;BME280;45961;53.574;55.878;2023-05-02T01:52:50;100241.66;;;18.83;40.56
60089;BME280;45961;53.574;55.878;2023-05-02T01:53:53;100231.16;;;19.49;39.54
60089;BME280;45961;53.574;55.878;2023-05-02T01:54:53;100234.75;;;19.80;39.09
60089;BME280;45961;53.574;55.878;2023-05-02T01:55:54;100236.75;;;20.31;37.98
60089;BME280;45961;53.574;55.878;2023-05-02T01:56:58;100242.19;;;20.81;36.85
60089;BME280;45961;53.574;55.878;2023-05-02T01:58:00;100235.97;;;20.83;36.35
60089;BME280;45961;53.574;55.878;2023-05-02T01:59:05;100232.56;;;21.06;36.48
60089;BME280;45961;53.574;55.878;2023-05-02T02:00:08;100224.75;;;21.55;35.48
60089;BME280;45961;53.574;55.878;2023-05-02T02:01:16;100233.31;;;22.08;35.12
60089;BME280;45961;53.574;55.878;2023-05-02T02:02:19;100239.28;;;22.13;34.79
60089;BME280;45961;53.574;55.878;2023-05-02T02:03:20;100236.16;;;21.79;34.70
60089;BME280;45961;53.574;55.878;2023-05-02T02:04:22;100239.81;;;21.51;35.00
60089;BME280;45961;53.574;55.878;2023-05-02T02:05:23;100251.25;;;20.99;35.97
60089;BME280;45961;53.574;55.878;2023-05-02T02:06:24;100251.09;;;21.03;37.04
60089;BME280;45961;53.574;55.878;2023-05-02T02:07:25;100252.06;;;21.26;37.55
60089;BME280;45961;53.574;55.878;2023-05-02T02:08:26;100250.47;;;21.22;36.13
60089;BME280;45961;53.574;55.878;2023-05-02T02:09:27;100249.75;;;21.16;36.41
60089;BME280;45961;53.574;55.878;2023-05-02T02:10:28;100247.31;;;21.10;36.46
60089;BME280;45961;53.574;55.878;2023-05-02T02:11:37;100257.56;;;21.19;36.79
60089;BME280;45961;53.574;55.878;2023-05-02T02:12:51;100253.41;;;21.39;36.34
60089;BME280;45961;53.574;55.878;2023-05-02T02:13:54;100249.75;;;21.16;36.28
60089;BME280;45961;53.574;55.878;2023-05-02T02:15:19;100255.53;;;21.28;36.59
60089;BME280;45961;53.574;55.878;2023-05-02T02:16:23;100258.69;;;21.12;36.56
60089;BME280;45961;53.574;55.878;2023-05-02T02:17:26;100251.97;;;21.29;36.19
60089;BME280;45961;53.574;55.878;2023-05-02T02:18:30;100253.88;;;20.99;36.20
60089;BME280;45961;53.574;55.878;2023-05-02T02:19:32;100262.38;;;21.07;36.79
60089;BME280;45961;53.574;55.878;2023-05-02T02:20:33;100260.19;;;20.93;36.87
60089;BME280;45961;53.574;55.878;2023-05-02T02:21:34;100265.56;;;21.16;37.01
60089;BME280;45961;53.574;55.878;2023-05-02T02:22:36;100259.97;;;20.73;36.41
60089;BME280;45961;53.574;55.878;2023-05-02T02:23:38;100250.94;;;21.08;36.86
60089;BME280;45961;53.574;55.878;2023-05-02T02:24:39;100254.09;;;21.17;36.18
60089;BME280;45961;53.574;55.878;2023-05-02T02:25:42;100261.53;;;21.33;36.53
60089;BME280;45961;53.574;55.878;2023-05-02T02:26:43;100256.72;;;21.19;37.15
60089;BME280;45961;53.574;55.878;2023-05-02T02:27:44;100263.56;;;21.50;36.51
60089;BME280;45961;53.574;55.878;2023-05-02T02:28:45;100262.88;;;21.44;36.11
60089;BME280;45961;53.574;55.878;2023-05-02T02:29:46;100256.97;;;21.63;35.69
60089;BME280;45961;53.574;55.878;2023-05-02T02:30:46;100261.91;;;21.47;35.52
60089;BME280;45961;53.574;55.878;2023-05-02T02:31:48;100261.34;;;21.62;36.57
60089;BME280;45961;53.574;55.878;2023-05-02T02:32:48;100264.09;;;21.34;35.44
60089;BME280;45961;53.574;55.878;2023-05-02T02:33:49;100263.34;;;21.31;36.04
60089;BME280;45961;53.574;55.878;2023-05-02T02:34:51;100262.94;;;21.16;35.91
60089;BME280;45961;53.574;55.878;2023-05-02T02:35:57;100265.97;;;21.31;36.01
60089;BME280;45961;53.574;55.878;2023-05-02T02:37:25;100268.38;;;21.62;36.12
60089;BME280;45961;53.574;55.878;2023-05-02T02:38:28;100267.97;;;21.49;35.78
60089;BME280;45961;53.574;55.878;2023-05-02T02:41:00;100267.88;;;21.26;36.28
60089;BME280;45961;53.574;55.878;2023-05-02T02:42:02;100261.91;;;21.20;36.06
60089;BME280;45961;53.574;55.878;2023-05-02T02:43:18;100268.78;;;21.25;36.16
60089;BME280;45961;53.574;55.878;2023-05-02T02:45:27;100267.44;;;21.13;36.06
60089;BME280;45961;53.574;55.878;2023-05-02T02:46:43;100263.81;;;20.90;36.64
60089;BME280;45961;53.574;55.878;2023-05-02T02:47:49;100268.28;;;21.13;36.66
60089;BME280;45961;53.574;55.878;2023-05-02T02:53:53;100278.81;;;21.13;36.65
60089;BME280;45961;53.574;55.878;2023-05-02T02:54:42;100272.94;;;21.05;36.91
60089;BME280;45961;53.574;55.878;2023-05-02T02:55:46;100282.38;;;21.12;37.01
60089;BME280;45961;53.574;55.878;2023-05-02T02:56:48;100279.25;;;21.26;36.98
60089;BME280;45961;53.574;55.878;2023-05-02T02:58:59;100280.66;;;21.38;36.36
60089;BME280;45961;53.574;55.878;2023-05-02T03:01:23;100282.38;;;21.64;36.00
60089;BME280;45961;53.574;55.878;2023-05-02T03:02:26;100279.22;;;21.79;35.63
60089;BME280;45961;53.574;55.878;2023-05-02T03:03:28;100277.94;;;21.89;36.53
60089;BME280;45961;53.574;55.878;2023-05-02T03:04:31;100276.72;;;21.75;35.88
60089;BME280;45961;53.574;55.878;2023-05-02T03:05:32;100284.94;;;21.65;35.99
60089;BME280;45961;53.574;55.878;2023-05-02T03:06:33;100281.94;;;21.76;36.16
60089;BME280;45961;53.574;55.878;2023-05-02T03:07:35;100283.47;;;21.82;36.48
60089;BME280;45961;53.574;55.878;2023-05-02T03:08:40;100284.03;;;21.91;36.28
60089;BME280;45961;53.574;55.878;2023-05-02T03:09:43;100288.44;;;21.91;36.61
60089;BME280;45961;53.574;55.878;2023-05-02T03:10:48;100288.19;;;21.97;35.68
60089;BME280;45961;53.574;55.878;2023-05-02T03:11:50;100286.06;;;22.07;35.78
60089;BME280;45961;53.574;55.878;2023-05-02T03:12:51;100285.34;;;22.03;35.16
60089;BME280;45961;53.574;55.878;2023-05-02T03:13:55;100285.03;;;22.36;35.02
60089;BME280;45961;53.574;55.878;2023-05-02T03:17:14;100282.09;;;22.65;34.38
60089;BME280;45961;53.574;55.878;2023-05-02T03:18:15;100286.03;;;22.55;34.40
60089;BME280;45961;53.574;55.878;2023-05-02T03:19:16;100290.78;;;22.46;34.78
60089;BME280;45961;53.574;55.878;2023-05-02T03:20:17;100288.00;;;22.27;35.14
60089;BME280;45961;53.574;55.878;2023-05-02T03:21:18;100286.25;;;22.27;35.00
60089;BME280;45961;53.574;55.878;2023-05-02T03:22:19;100285.69;;;22.41;35.20
60089;BME280;45961;53.574;55.878;2023-05-02T03:23:20;100290.81;;;22.22;34.97
60089;BME280;45961;53.574;55.878;2023-05-02T03:24:21;100290.97;;;22.41;35.48
60089;BME280;45961;53.574;55.878;2023-05-02T03:25:23;100291.97;;;22.60;35.23
60089;BME280;45961;53.574;55.878;2023-05-02T03:26:24;100288.06;;;22.25;34.92
60089;BME280;45961;53.574;55.878;2023-05-02T03:27:25;100289.84;;;22.25;34.93
60089;BME280;45961;53.574;55.878;2023-05-02T03:28:26;100283.22;;;22.60;34.65
60089;BME280;45961;53.574;55.878;2023-05-02T03:29:27;100288.03;;;22.49;34.89
60089;BME280;45961;53.574;55.878;2023-05-02T03:30:28;100286.44;;;22.66;34.37
60089;BME280;45961;53.574;55.878;2023-05-02T03:31:29;100284.56;;;22.25;34.96
60089;BME280;45961;53.574;55.878;2023-05-02T03:32:30;100281.94;;;22.25;34.61
60089;BME280;45961;53.574;55.878;2023-05-02T03:33:31;100281.13;;;21.74;34.74
60089;BME280;45961;53.574;55.878;2023-05-02T03:34:32;100282.28;;;21.90;34.78
60089;BME280;45961;53.574;55.878;2023-05-02T03:35:33;100284.75;;;21.72;35.15
60089;BME280;45961;53.574;55.878;2023-05-02T03:36:34;100283.28;;;21.88;34.74
60089;BME280;45961;53.574;55.878;2023-05-02T03:37:35;100285.22;;;22.06;34.64
60089;BME280;45961;53.574;55.878;2023-05-02T03:38:36;100285.81;;;22.14;34.95
60089;BME280;45961;53.574;55.878;2023-05-02T03:39:40;100287.91;;;22.05;34.66
60089;BME280;45961;53.574;55.878;2023-05-02T03:40:41;100283.28;;;22.11;35.05
60089;BME280;45961;53.574;55.878;2023-05-02T03:41:44;100290.31;;;22.11;34.85
60089;BME280;45961;53.574;55.878;2023-05-02T03:42:49;100280.63;;;21.88;34.71
60089;BME280;45961;53.574;55.878;2023-05-02T03:43:59;100280.97;;;22.02;35.25
60089;BME280;45961;53.574;55.878;2023-05-02T03:45:01;100283.28;;;22.11;35.36
60089;BME280;45961;53.574;55.878;2023-05-02T03:46:07;100275.38;;;22.11;34.68
60089;BME280;45961;53.574;55.878;2023-05-02T03:47:11;100280.97;;;22.02;34.66
60089;BME280;45961;53.574;55.878;2023-05-02T03:48:15;100281.22;;;21.96;34.92
60089;BME280;45961;53.574;55.878;2023-05-02T03:49:16;100281.69;;;22.07;34.85
60089;BME280;45961;53.574;55.878;2023-05-02T03:50:20;100280.47;;;21.92;34.68
60089;BME280;45961;53.574;55.878;2023-05-02T03:51:23;100280.28;;;21.74;34.78
60089;BME280;45961;53.574;55.878;2023-05-02T03:52:26;100283.72;;;21.51;35.37
60089;BME280;45961;53.574;55.878;2023-05-02T03:53:29;100275.25;;;21.91;35.21
60089;BME280;45961;53.574;55.878;2023-05-02T03:54:34;100275.94;;;21.96;34.73
60089;BME280;45961;53.574;55.878;2023-05-02T03:55:44;100279.94;;;22.06;35.35
60089;BME280;45961;53.574;55.878;2023-05-02T03:56:52;100274.50;;;22.11;35.13
60089;BME280;45961;53.574;55.878;2023-05-02T03:57:58;100273.38;;;22.41;34.02
60089;BME280;45961;53.574;55.878;2023-05-02T03:59:00;100266.59;;;22.34;34.20
60089;BME280;45961;53.574;55.878;2023-05-02T04:00:04;100278.34;;;22.02;34.58
60089;BME280;45961;53.574;55.878;2023-05-02T04:01:12;100281.53;;;21.63;34.82
60089;BME280;45961;53.574;55.878;2023-05-02T04:02:14;100278.38;;;21.77;34.47
60089;BME280;45961;53.574;55.878;2023-05-02T04:03:19;100283.47;;;21.82;34.52
60089;BME280;45961;53.574;55.878;2023-05-02T04:04:20;100275.94;;;21.96;34.59
60089;BME280;45961;53.574;55.878;2023-05-02T04:05:24;100276.94;;;22.17;34.38
60089;BME280;45961;53.574;55.878;2023-05-02T04:06:25;100277.47;;;21.78;34.19
60089;BME280;45961;53.574;55.878;2023-05-02T04:07:31;100281.25;;;21.71;34.01
60089;BME280;45961;53.574;55.878;2023-05-02T04:08:35;100281.19;;;21.73;34.66
60089;BME280;45961;53.574;55.878;2023-05-02T04:09:36;100286.69;;;21.90;35.08
60089;BME280;45961;53.574;55.878;2023-05-02T04:10:43;100286.59;;;21.93;34.58
60089;BME280;45961;53.574;55.878;2023-05-02T04:11:45;100287.03;;;21.81;34.85
60089;BME280;45961;53.574;55.878;2023-05-02T04:12:47;100285.91;;;21.88;34.88
60089;BME280;45961;53.574;55.878;2023-05-02T04:13:49;100284.44;;;22.04;34.96
60089;BME280;45961;53.574;55.878;2023-05-02T04:14:51;100281.25;;;22.20;34.51
60089;BME280;45961;53.574;55.878;2023-05-02T04:15:55;100284.63;;;22.23;35.34
60089;BME280;45961;53.574;55.878;2023-05-02T04:16:57;100283.47;;;22.30;34.32
60089;BME280;45961;53.574;55.878;2023-05-02T04:18:08;100283.25;;;22.36;34.32
60089;BME280;45961;53.574;55.878;2023-05-02T04:19:10;100281.84;;;22.26;34.66
60089;BME280;45961;53.574;55.878;2023-05-02T04:20:12;100290.03;;;22.42;34.34
60089;BME280;45961;53.574;55.878;2023-05-02T04:21:17;100286.88;;;22.09;34.20
60089;BME280;45961;53.574;55.878;2023-05-02T04:22:19;100287.56;;;22.15;34.57
60089;BME280;45961;53.574;55.878;2023-05-02T04:23:25;100283.66;;;22.26;34.75
60089;BME280;45961;53.574;55.878;2023-05-02T04:24:31;100290.03;;;22.20;34.95
60089;BME280;45961;53.574;55.878;2023-05-02T04:25:32;100289.19;;;22.18;34.60
60089;BME280;45961;53.574;55.878;2023-05-02T04:26:36;100281.47;;;22.13;35.29
60089;BME280;45961;53.574;55.878;2023-05-02T04:27:41;100284.31;;;22.31;34.89
60089;BME280;45961;53.574;55.878;2023-05-02T04:28:45;100288.81;;;22.51;34.64
60089;BME280;45961;53.574;55.878;2023-05-02T04:29:48;100280.88;;;22.52;34.65
60089;BME280;45961;53.574;55.878;2023-05-02T04:30:51;100285.03;;;22.58;34.20
60089;BME280;45961;53.574;55.878;2023-05-02T04:31:55;100291.88;;;22.63;34.21
60089;BME280;45961;53.574;55.878;2023-05-02T04:32:59;100289.31;;;22.38;33.77
60089;BME280;45961;53.574;55.878;2023-05-02T04:34:04;100294.84;;;22.54;34.28
60089;BME280;45961;53.574;55.878;2023-05-02T04:35:10;100296.44;;;22.58;34.16
60089;BME280;45961;53.574;55.878;2023-05-02T04:36:12;100295.84;;;22.74;33.83
60089;BME280;45961;53.574;55.878;2023-05-02T04:37:16;100290.44;;;22.77;33.81
60089;BME280;45961;53.574;55.878;2023-05-02T04:38:19;100292.34;;;22.73;33.60
60089;BME280;45961;53.574;55.878;2023-05-02T04:39:22;100289.59;;;22.76;33.81
60089;BME280;45961;53.574;55.878;2023-05-02T04:40:36;100291.25;;;22.33;33.84
60089;BME280;45961;53.574;55.878;2023-05-02T04:41:39;100284.38;;;22.29;34.12
60089;BME280;45961;53.574;55.878;2023-05-02T04:42:41;100287.59;;;22.14;33.59
60089;BME280;45961;53.574;55.878;2023-05-02T04:43:49;100286.19;;;22.51;34.23
60089;BME280;45961;53.574;55.878;2023-05-02T04:44:49;100284.66;;;22.67;33.57
60089;BME280;45961;53.574;55.878;2023-05-02T04:45:51;100286.88;;;22.78;34.46
60089;BME280;45961;53.574;55.878;2023-05-02T04:46:59;100283.47;;;22.76;34.66
60089;BME280;45961;53.574;55.878;2023-05-02T04:48:00;100285.00;;;22.59;33.67
60089;BME280;45961;53.574;55.878;2023-05-02T04:49:00;100285.06;;;22.80;33.87
60089;BME280;45961;53.574;55.878;2023-05-02T04:50:01;100280.56;;;22.82;33.20
60089;BME280;45961;53.574;55.878;2023-05-02T04:51:03;100286.50;;;22.87;33.59
60089;BME280;45961;53.574;55.878;2023-05-02T04:52:05;100286.47;;;22.43;33.61
60089;BME280;45961;53.574;55.878;2023-05-02T04:53:07;100275.06;;;22.21;33.17
60089;BME280;45961;53.574;55.878;2023-05-02T04:54:09;100283.66;;;22.26;33.63
60089;BME280;45961;53.574;55.878;2023-05-02T04:55:10;100269.06;;;22.39;33.77
60089;BME280;45961;53.574;55.878;2023-05-02T04:56:11;100276.19;;;22.59;33.72
60089;BME280;45961;53.574;55.878;2023-05-02T04:57:13;100275.72;;;22.49;33.98
60089;BME280;45961;53.574;55.878;2023-05-02T04:58:17;100273.84;;;22.51;33.28
60089;BME280;45961;53.574;55.878;2023-05-02T04:59:23;100273.53;;;22.37;34.36
60089;BME280;45961;53.574;55.878;2023-05-02T05:00:23;100277.34;;;22.30;34.16
60089;BME280;45961;53.574;55.878;2023-05-02T05:02:28;100277.19;;;22.56;33.51
60089;BME280;45961;53.574;55.878;2023-05-02T05:03:31;100282.47;;;22.78;33.69
60089;BME280;45961;53.574;55.878;2023-05-02T05:04:33;100277.44;;;22.94;33.23
60089;BME280;45961;53.574;55.878;2023-05-02T05:05:34;100272.41;;;22.88;32.53
60089;BME280;45961;53.574;55.878;2023-05-02T05:06:36;100282.34;;;23.03;33.25
60089;BME280;45961;53.574;55.878;2023-05-02T05:07:37;100278.31;;;22.95;33.00
60089;BME280;45961;53.574;55.878;2023-05-02T05:08:39;100276.94;;;23.06;33.25
60089;BME280;45961;53.574;55.878;2023-05-02T05:09:41;100277.59;;;23.11;33.47
60089;BME280;45961;53.574;55.878;2023-05-02T05:10:41;100271.88;;;23.22;33.36
60089;BME280;45961;53.574;55.878;2023-05-02T05:11:43;100272.59;;;23.05;32.89
60089;BME280;45961;53.574;55.878;2023-05-02T05:12:46;100281.59;;;22.78;32.91
60089;BME280;45961;53.574;55.878;2023-05-02T05:13:49;100269.16;;;22.81;32.47
60089;BME280;45961;53.574;55.878;2023-05-02T05:14:50;100264.47;;;22.88;32.77
60089;BME280;45961;53.574;55.878;2023-05-02T05:15:52;100266.16;;;22.90;32.83
60089;BME280;45961;53.574;55.878;2023-05-02T05:16:57;100270.81;;;23.06;32.97
60089;BME280;45961;53.574;55.878;2023-05-02T05:18:02;100270.34;;;22.96;32.49
60089;BME280;45961;53.574;55.878;2023-05-02T05:19:03;100270.50;;;23.13;33.01
60089;BME280;45961;53.574;55.878;2023-05-02T05:20:04;100271.06;;;23.00;31.93
60089;BME280;45961;53.574;55.878;2023-05-02T05:21:06;100273.75;;;23.20;32.76
60089;BME280;45961;53.574;55.878;2023-05-02T05:22:07;100266.03;;;23.36;32.62
60089;BME280;45961;53.574;55.878;2023-05-02T05:23:08;100273.59;;;23.44;32.57
60089;BME280;45961;53.574;55.878;2023-05-02T05:24:08;100271.41;;;23.53;32.20
60089;BME280;45961;53.574;55.878;2023-05-02T05:25:10;100275.00;;;23.52;31.66
60089;BME280;45961;53.574;55.878;2023-05-02T05:26:14;100280.66;;;23.63;32.23
60089;BME280;45961;53.574;55.878;2023-05-02T05:27:18;100272.88;;;23.60;31.67
60089;BME280;45961;53.574;55.878;2023-05-02T05:28:19;100279.28;;;23.55;31.91
60089;BME280;45961;53.574;55.878;2023-05-02T05:29:20;100279.41;;;23.31;31.49
60089;BME280;45961;53.574;55.878;2023-05-02T05:30:21;100280.41;;;23.29;31.87
60089;BME280;45961;53.574;55.878;2023-05-02T05:31:22;100280.41;;;23.49;32.17
60089;BME280;45961;53.574;55.878;2023-05-02T05:32:27;100286.56;;;23.50;31.36
60089;BME280;45961;53.574;55.878;2023-05-02T05:33:29;100284.13;;;23.66;31.40
60089;BME280;45961;53.574;55.878;2023-05-02T05:34:30;100279.44;;;23.72;31.37
60089;BME280;45961;53.574;55.878;2023-05-02T05:35:32;100279.75;;;23.85;31.52
60089;BME280;45961;53.574;55.878;2023-05-02T05:36:35;100283.28;;;23.84;31.14
60089;BME280;45961;53.574;55.878;2023-05-02T05:37:38;100285.44;;;23.76;31.50
60089;BME280;45961;53.574;55.878;2023-05-02T05:38:41;100278.94;;;23.83;30.98
60089;BME280;45961;53.574;55.878;2023-05-02T05:39:44;100282.59;;;23.60;30.83
60089;BME280;45961;53.574;55.878;2023-05-02T05:40:48;100286.75;;;23.45;30.71
60089;BME280;45961;53.574;55.878;2023-05-02T05:41:48;100286.75;;;23.45;30.66
60089;BME280;45961;53.574;55.878;2023-05-02T05:42:50;100281.06;;;23.34;30.66
60089;BME280;45961;53.574;55.878;2023-05-02T05:43:57;100281.59;;;23.62;31.39
60089;BME280;45961;53.574;55.878;2023-05-02T05:45:00;100276.50;;;23.78;31.31
60089;BME280;45961;53.574;55.878;2023-05-02T05:46:01;100271.50;;;23.72;30.50
60089;BME280;45961;53.574;55.878;2023-05-02T05:47:04;100274.06;;;23.74;30.42